createdAt,value
2018-01-24T00:01:43.129Z,101385.18
2018-01-24T00:04:10.696Z,101389.30
2018-01-24T00:06:38.320Z,101383.72
2018-01-24T00:09:05.932Z,101389.05
2018-01-24T00:11:33.531Z,101389.47
2018-01-24T00:14:01.148Z,101390.31
2018-01-24T00:16:28.720Z,101393.49
2018-01-24T00:18:56.372Z,101398.72
2018-01-24T00:21:23.988Z,101412.56
2018-01-24T00:23:51.566Z,101412.39
2018-01-24T00:26:19.141Z,101415.63
2018-01-24T00:28:46.816Z,101419.08
2018-01-24T00:31:14.396Z,101430.00
2018-01-24T00:33:41.976Z,101430.71
2018-01-24T00:36:09.597Z,101426.18
2018-01-24T00:38:37.170Z,101429.27
2018-01-24T00:41:04.749Z,101421.79
2018-01-24T00:43:32.391Z,101427.48
2018-01-24T00:45:59.965Z,101426.69
2018-01-24T00:48:27.525Z,101433.47
2018-01-24T00:50:55.246Z,101429.45
2018-01-24T00:53:22.838Z,101429.51
2018-01-24T00:55:50.416Z,101435.30
2018-01-24T00:58:18.042Z,101450.95
2018-01-24T01:00:45.634Z,101442.55
2018-01-24T01:03:13.216Z,101436.73
2018-01-24T01:05:40.815Z,101439.27
2018-01-24T01:08:08.397Z,101444.83
2018-01-24T01:10:35.962Z,101449.36
2018-01-24T01:13:03.581Z,101449.72
2018-01-24T01:15:31.151Z,101453.64
2018-01-24T01:17:58.730Z,101454.58
2018-01-24T01:20:26.354Z,101450.48
2018-01-24T01:22:53.929Z,101457.97
2018-01-24T01:25:21.498Z,101458.17
2018-01-24T01:27:49.200Z,101460.08
2018-01-24T01:30:16.780Z,101465.52
2018-01-24T01:32:44.349Z,101467.73
2018-01-24T01:35:11.961Z,101469.30
2018-01-24T01:37:39.518Z,101469.25
2018-01-24T01:40:07.080Z,101471.83
2018-01-24T01:42:34.689Z,101473.38
2018-01-24T01:45:02.264Z,101478.34
2018-01-24T01:47:29.853Z,101477.52
2018-01-24T01:49:57.520Z,101474.16
2018-01-24T01:52:25.140Z,101480.44
2018-01-24T01:54:52.754Z,101477.52
2018-01-24T01:57:20.402Z,101490.86
2018-01-24T01:59:48.017Z,101492.13
2018-01-24T02:02:15.604Z,101496.84
2018-01-24T02:04:43.292Z,101502.71
2018-01-24T02:07:11.051Z,101503.61
2018-01-24T02:09:38.633Z,101503.72
2018-01-24T02:12:06.252Z,101508.55
2018-01-24T02:14:33.835Z,101513.83
2018-01-24T02:17:01.411Z,101520.52
2018-01-24T02:19:29.094Z,101518.94
2018-01-24T02:21:56.677Z,101520.06
2018-01-24T02:24:24.286Z,101523.09
2018-01-24T02:26:51.960Z,101528.91
2018-01-24T02:29:19.542Z,101533.59
2018-01-24T02:31:47.162Z,101538.06
2018-01-24T02:34:14.772Z,101533.57
2018-01-24T02:36:42.343Z,101545.53
2018-01-24T02:39:15.989Z,101552.28
2018-01-24T02:41:43.559Z,101552.19
2018-01-24T02:44:11.131Z,101552.59
2018-01-24T02:46:38.750Z,101551.89
2018-01-24T02:49:06.711Z,101551.56
2018-01-24T02:51:34.336Z,101556.11
2018-01-24T02:54:01.957Z,101551.43
2018-01-24T02:56:29.523Z,101562.59
2018-01-24T02:58:57.087Z,101562.59
2018-01-24T03:01:24.691Z,101561.91
2018-01-24T03:03:52.275Z,101563.13
2018-01-24T03:06:19.860Z,101561.25
2018-01-24T03:08:47.462Z,101562.25
2018-01-24T03:11:15.027Z,101559.92
2018-01-24T03:13:42.852Z,101562.72
2018-01-24T03:16:10.486Z,101566.85
2018-01-24T03:18:38.056Z,101578.19
2018-01-24T03:21:05.824Z,101572.75
2018-01-24T03:23:33.428Z,101576.64
2018-01-24T03:26:01.013Z,101575.78
2018-01-24T03:28:28.597Z,101570.09
2018-01-24T03:30:56.210Z,101583.86
2018-01-24T03:33:23.772Z,101579.15
2018-01-24T03:35:51.355Z,101579.78
2018-01-24T03:38:19.265Z,101584.50
2018-01-24T03:40:46.844Z,101585.00
2018-01-24T03:43:14.419Z,101586.84
2018-01-24T03:45:42.019Z,101592.66
2018-01-24T03:48:09.591Z,101593.47
2018-01-24T03:50:37.186Z,101597.38
2018-01-24T03:53:04.812Z,101599.81
2018-01-24T03:55:32.395Z,101601.74
2018-01-24T03:57:59.999Z,101603.53
2018-01-24T04:00:27.628Z,101610.58
2018-01-24T04:02:55.212Z,101610.48
2018-01-24T04:05:22.801Z,101609.89
2018-01-24T04:07:50.424Z,101612.58
2018-01-24T04:10:17.993Z,101621.16
2018-01-24T04:12:45.555Z,101622.67
2018-01-24T04:15:13.167Z,101628.94
2018-01-24T04:17:40.754Z,101634.05
2018-01-24T04:20:08.396Z,101636.06
2018-01-24T04:22:36.025Z,101637.90
2018-01-24T04:25:03.612Z,101643.27
2018-01-24T04:27:31.184Z,101650.58
2018-01-24T04:29:58.818Z,101650.63
2018-01-24T04:32:26.378Z,101649.41
2018-01-24T04:34:53.950Z,101662.19
2018-01-24T04:37:21.642Z,101669.25
2018-01-24T04:39:49.283Z,101668.30
2018-01-24T04:42:16.875Z,101677.05
2018-01-24T04:44:44.533Z,101682.53
2018-01-24T04:47:12.139Z,101685.58
2018-01-24T04:49:39.757Z,101699.62
2018-01-24T04:52:07.508Z,101701.56
2018-01-24T04:54:35.105Z,101707.67
2018-01-24T04:57:02.794Z,101714.61
2018-01-24T04:59:30.445Z,101726.39
2018-01-24T05:01:58.057Z,101721.87
2018-01-24T05:04:25.672Z,101722.13
2018-01-24T05:06:53.331Z,101728.05
2018-01-24T05:09:20.944Z,101730.42
2018-01-24T05:11:48.579Z,101736.92
2018-01-24T05:14:16.258Z,101741.19
2018-01-24T05:16:43.879Z,101749.80
2018-01-24T05:19:11.516Z,101745.34
2018-01-24T05:21:40.643Z,101750.75
2018-01-24T05:24:08.270Z,101751.69
2018-01-24T05:26:35.857Z,101758.26
2018-01-24T05:29:03.459Z,101759.48
2018-01-24T05:31:31.031Z,101762.58
2018-01-24T05:33:58.598Z,101765.00
2018-01-24T05:36:26.214Z,101771.06
2018-01-24T05:38:53.801Z,101778.70
2018-01-24T05:41:21.382Z,101779.66
2018-01-24T05:43:49.013Z,101788.91
2018-01-24T05:46:16.598Z,101793.40
2018-01-24T05:48:44.197Z,101798.89
2018-01-24T05:51:11.816Z,101802.16
2018-01-24T05:53:39.406Z,101806.33
2018-01-24T05:56:06.975Z,101812.02
2018-01-24T05:58:34.617Z,101817.69
2018-01-24T06:01:02.179Z,101814.88
2018-01-24T06:03:29.759Z,101816.23
2018-01-24T06:05:57.375Z,101816.80
2018-01-24T06:08:24.965Z,101822.33
2018-01-24T06:10:52.542Z,101826.52
2018-01-24T06:13:20.169Z,101829.13
2018-01-24T06:15:47.756Z,101832.48
2018-01-24T06:18:15.400Z,101839.72
2018-01-24T06:20:43.007Z,101838.47
2018-01-24T06:23:10.583Z,101837.02
2018-01-24T06:25:38.163Z,101835.11
2018-01-24T06:28:05.775Z,101837.11
2018-01-24T06:30:33.354Z,101837.64
2018-01-24T06:33:00.927Z,101835.02
2018-01-24T06:35:28.596Z,101841.03
2018-01-24T06:37:56.183Z,101841.89
2018-01-24T06:40:23.773Z,101845.37
2018-01-24T06:42:51.602Z,101851.16
2018-01-24T06:45:19.180Z,101849.21
2018-01-24T06:47:46.761Z,101854.64
2018-01-24T06:50:14.401Z,101854.70
2018-01-24T06:52:41.987Z,101858.42
2018-01-24T06:55:09.577Z,101871.61
2018-01-24T06:57:37.241Z,101868.25
2018-01-24T07:00:04.913Z,101873.16
2018-01-24T07:02:32.589Z,101872.89
2018-01-24T07:05:00.235Z,101871.52
2018-01-24T07:07:27.818Z,101874.89
2018-01-24T07:09:55.387Z,101870.95
2018-01-24T07:12:34.688Z,101878.11
2018-01-24T07:15:02.272Z,101884.05
2018-01-24T07:17:30.172Z,101877.76
2018-01-24T07:19:58.716Z,101878.27
2018-01-24T07:22:26.972Z,101885.01
2018-01-24T07:24:54.539Z,101882.58
2018-01-24T07:27:22.193Z,101883.08
2018-01-24T07:29:49.954Z,101884.75
2018-01-24T07:32:17.710Z,101881.59
2018-01-24T07:34:45.384Z,101881.31
2018-01-24T07:37:12.965Z,101886.30
2018-01-24T07:39:40.590Z,101877.41
2018-01-24T07:42:08.219Z,101893.44
2018-01-24T07:44:36.044Z,101893.16
2018-01-24T07:47:03.618Z,101895.53
2018-01-24T07:49:31.342Z,101905.02
2018-01-24T07:51:58.976Z,101904.95
2018-01-24T07:54:26.672Z,101910.72
2018-01-24T07:56:54.488Z,101899.76
2018-01-24T07:59:22.124Z,101899.91
2018-01-24T08:01:49.755Z,101907.09
2018-01-24T08:04:17.422Z,101914.19
2018-01-24T08:06:45.049Z,101919.53
2018-01-24T08:09:12.680Z,101907.55
2018-01-24T08:11:40.354Z,101926.14
2018-01-24T08:14:07.963Z,101926.14
2018-01-24T08:16:35.596Z,101923.00
2018-01-24T08:19:03.239Z,101926.44
2018-01-24T08:21:30.868Z,101930.69
2018-01-24T08:23:58.551Z,101930.81
2018-01-24T08:26:26.166Z,101938.20
2018-01-24T08:28:53.756Z,101940.91
2018-01-24T08:31:21.502Z,101940.86
2018-01-24T08:33:49.123Z,101944.89
2018-01-24T08:36:16.711Z,101941.40
2018-01-24T08:38:44.300Z,101945.16
2018-01-24T08:41:11.919Z,101948.97
2018-01-24T08:43:39.620Z,101951.51
2018-01-24T08:46:07.200Z,101952.64
2018-01-24T08:48:35.732Z,101951.09
2018-01-24T08:51:03.311Z,101950.35
2018-01-24T08:53:30.889Z,101958.98
2018-01-24T08:55:58.544Z,101954.33
2018-01-24T08:58:26.124Z,101939.36
2018-01-24T09:00:53.714Z,101945.47
2018-01-24T09:03:21.338Z,101942.56
2018-01-24T09:05:48.925Z,101941.91
2018-01-24T09:08:16.499Z,101944.27
2018-01-24T09:10:44.152Z,101947.12
2018-01-24T09:13:11.809Z,101947.22
2018-01-24T09:15:39.432Z,101939.92
2018-01-24T09:18:07.071Z,101934.61
2018-01-24T09:20:34.685Z,101939.48
2018-01-24T09:23:02.265Z,101930.00
2018-01-24T09:25:29.919Z,101938.64
2018-01-24T09:27:57.533Z,101940.38
2018-01-24T09:30:25.153Z,101941.86
2018-01-24T09:32:53.319Z,101937.06
2018-01-24T09:35:20.941Z,101933.50
2018-01-24T09:37:48.558Z,101937.41
2018-01-24T09:40:16.185Z,101923.97
2018-01-24T09:42:43.735Z,101923.55
2018-01-24T09:45:11.300Z,101923.81
2018-01-24T09:47:38.939Z,101920.85
2018-01-24T09:50:06.553Z,101922.84
2018-01-24T09:52:34.103Z,101929.97
2018-01-24T09:55:01.747Z,101919.19
2018-01-24T09:57:29.321Z,101917.03
2018-01-24T09:59:56.976Z,101917.53
2018-01-24T10:02:24.580Z,101924.02
2018-01-24T10:04:53.730Z,101923.19
2018-01-24T10:07:21.329Z,101926.70
2018-01-24T10:09:48.936Z,101917.38
2018-01-24T10:12:16.504Z,101914.99
2018-01-24T10:14:44.117Z,101915.28
2018-01-24T10:17:11.740Z,101913.53
2018-01-24T10:19:39.333Z,101915.80
2018-01-24T10:22:06.905Z,101908.63
2018-01-24T10:24:34.517Z,101912.60
2018-01-24T10:27:02.131Z,101912.94
2018-01-24T10:29:29.733Z,101902.08
2018-01-24T10:31:57.392Z,101895.56
2018-01-24T10:34:25.067Z,101900.63
2018-01-24T10:36:52.717Z,101901.11
2018-01-24T10:39:20.493Z,101898.52
2018-01-24T10:41:48.227Z,101897.55
2018-01-24T10:44:15.984Z,101893.66
2018-01-24T10:46:43.614Z,101883.97
2018-01-24T10:49:11.231Z,101885.42
2018-01-24T10:51:38.862Z,101881.92
2018-01-24T10:54:06.501Z,101880.33
2018-01-24T10:56:34.116Z,101873.33
2018-01-24T10:59:01.700Z,101870.74
2018-01-24T11:01:29.302Z,101873.84
2018-01-24T11:03:56.864Z,101868.26
2018-01-24T11:06:24.441Z,101866.02
2018-01-24T11:08:52.053Z,101874.86
2018-01-24T11:11:19.670Z,101868.04
2018-01-24T11:13:47.330Z,101867.25
2018-01-24T11:16:14.946Z,101869.37
2018-01-24T11:18:42.497Z,101871.57
2018-01-24T11:21:10.055Z,101866.14
2018-01-24T11:23:37.674Z,101863.29
2018-01-24T11:26:05.289Z,101848.62
2018-01-24T11:28:32.943Z,101852.10
2018-01-24T11:31:00.542Z,101851.84
2018-01-24T11:33:28.149Z,101858.61
2018-01-24T11:35:55.751Z,101853.77
2018-01-24T11:38:23.393Z,101850.61
2018-01-24T11:40:51.066Z,101855.41
2018-01-24T11:43:18.671Z,101849.55
2018-01-24T11:45:46.290Z,101850.61
2018-01-24T11:48:13.860Z,101854.48
2018-01-24T11:50:41.452Z,101859.02
2018-01-24T11:53:09.058Z,101855.48
2018-01-24T11:55:36.643Z,101852.59
2018-01-24T11:58:04.230Z,101847.14
2018-01-24T12:00:31.859Z,101845.39
2018-01-24T12:02:59.424Z,101848.33
2018-01-24T12:05:27.008Z,101846.95
2018-01-24T12:07:54.662Z,101846.78
2018-01-24T12:10:22.239Z,101848.30
2018-01-24T12:12:49.839Z,101847.41
2018-01-24T12:15:17.497Z,101838.69
2018-01-24T12:17:45.070Z,101852.31
2018-01-24T12:20:12.612Z,101850.06
2018-01-24T12:22:40.256Z,101842.34
2018-01-24T12:25:07.873Z,101837.48
2018-01-24T12:27:35.452Z,101839.00
2018-01-24T12:30:03.228Z,101836.63
2018-01-24T12:32:30.805Z,101837.66
2018-01-24T12:34:58.387Z,101838.25
2018-01-24T12:37:26.024Z,101835.23
2018-01-24T12:39:53.678Z,101832.30
2018-01-24T12:42:21.232Z,101825.95
2018-01-24T12:44:48.845Z,101823.90
2018-01-24T12:47:16.456Z,101826.19
2018-01-24T12:49:44.046Z,101831.38
2018-01-24T12:52:11.652Z,101836.16
2018-01-24T12:54:39.255Z,101836.64
2018-01-24T12:57:06.829Z,101841.73
2018-01-24T12:59:34.451Z,101829.75
2018-01-24T13:02:02.038Z,101833.72
2018-01-24T13:04:29.635Z,101834.73
2018-01-24T13:06:57.259Z,101838.62
2018-01-24T13:09:24.839Z,101833.63
2018-01-24T13:11:52.460Z,101837.08
2018-01-24T13:14:20.077Z,101838.37
2018-01-24T13:16:47.661Z,101837.55
2018-01-24T13:19:15.241Z,101848.75
2018-01-24T13:21:42.883Z,101842.15
2018-01-24T13:24:10.502Z,101849.25
2018-01-24T13:26:38.207Z,101837.52
2018-01-24T13:29:05.904Z,101846.10
2018-01-24T13:31:33.550Z,101854.41
2018-01-24T13:34:01.234Z,101844.59
2018-01-24T13:36:28.896Z,101844.53
2018-01-24T13:38:56.488Z,101841.12
2018-01-24T13:41:24.096Z,101847.08
2018-01-24T13:43:51.721Z,101843.23
2018-01-24T13:46:19.301Z,101851.84
2018-01-24T13:48:46.911Z,101852.03
2018-01-24T13:51:14.554Z,101860.45
2018-01-24T13:53:42.161Z,101851.38
2018-01-24T13:56:09.773Z,101855.38
2018-01-24T13:58:37.412Z,101856.88
2018-01-24T14:01:05.324Z,101853.92
2018-01-24T14:03:32.896Z,101859.27
2018-01-24T14:06:00.577Z,101866.33
2018-01-24T14:08:29.754Z,101857.60
2018-01-24T14:10:57.331Z,101856.41
2018-01-24T14:13:24.931Z,101859.20
2018-01-24T14:15:52.567Z,101854.06
2018-01-24T14:18:20.179Z,101857.37
2018-01-24T14:20:47.791Z,101859.40
2018-01-24T14:23:15.356Z,101856.39
2018-01-24T14:25:42.936Z,101851.45
2018-01-24T14:28:10.545Z,101854.53
2018-01-24T14:30:38.105Z,101860.81
2018-01-24T14:33:05.815Z,101864.36
2018-01-24T14:35:33.462Z,101863.22
2018-01-24T14:38:01.046Z,101870.13
2018-01-24T14:40:28.619Z,101872.66
2018-01-24T14:42:56.215Z,101876.02
2018-01-24T14:45:23.786Z,101866.98
2018-01-24T14:47:57.017Z,101867.77
2018-01-24T14:50:24.609Z,101867.05
2018-01-24T14:52:52.295Z,101858.62
2018-01-24T14:55:19.899Z,101868.94
2018-01-24T14:57:47.466Z,101866.51
2018-01-24T15:00:15.053Z,101868.56
2018-01-24T15:02:42.665Z,101867.23
2018-01-24T15:05:10.261Z,101874.83
2018-01-24T15:07:38.010Z,101874.70
2018-01-24T15:10:06.225Z,101874.29
2018-01-24T15:12:34.665Z,101873.13
2018-01-24T15:15:02.362Z,101880.15
2018-01-24T15:17:30.672Z,101881.20
2018-01-24T15:19:59.083Z,101888.36
2018-01-24T15:22:27.766Z,101888.95
2018-01-24T15:24:55.529Z,101885.61
2018-01-24T15:27:24.415Z,101894.25
2018-01-24T15:29:53.421Z,101890.03
2018-01-24T15:32:22.472Z,101895.70
2018-01-24T15:34:50.177Z,101902.27
2018-01-24T15:37:17.768Z,101899.98
2018-01-24T15:39:45.344Z,101911.57
2018-01-24T15:42:12.959Z,101914.05
2018-01-24T15:44:40.547Z,101910.23
2018-01-24T15:47:08.195Z,101920.75
2018-01-24T15:49:35.809Z,101929.95
2018-01-24T15:52:03.384Z,101926.22
2018-01-24T15:54:30.968Z,101944.35
2018-01-24T15:56:58.577Z,101945.89
2018-01-24T15:59:26.157Z,101955.11
2018-01-24T16:01:53.729Z,101949.89
2018-01-24T16:04:21.425Z,101960.59
2018-01-24T16:06:48.989Z,101963.41
2018-01-24T16:09:16.555Z,101963.59
2018-01-24T16:11:44.355Z,101965.80
2018-01-24T16:14:11.918Z,101965.43
2018-01-24T16:16:39.509Z,101977.10
2018-01-24T16:19:07.176Z,101972.31
2018-01-24T16:21:34.733Z,101970.20
2018-01-24T16:24:02.310Z,101965.00
2018-01-24T16:26:30.039Z,101959.46
2018-01-24T16:28:57.943Z,101959.40
2018-01-24T16:31:25.514Z,101954.20
2018-01-24T16:33:53.144Z,101956.92
2018-01-24T16:36:20.756Z,101922.14
2018-01-24T16:38:48.323Z,101959.45
2018-01-24T16:41:15.947Z,101962.88
2018-01-24T16:43:43.510Z,101965.37
2018-01-24T16:46:11.104Z,101972.84
2018-01-24T16:48:38.737Z,101972.42
2018-01-24T16:51:06.325Z,101981.15
2018-01-24T16:53:33.957Z,101977.09
2018-01-24T16:56:01.569Z,101980.70
2018-01-24T16:58:29.659Z,101981.30
2018-01-24T17:00:57.245Z,101979.95
2018-01-24T17:03:24.841Z,101994.30
2018-01-24T17:05:52.467Z,101998.11
2018-01-24T17:08:20.082Z,101995.53
2018-01-24T17:10:47.715Z,101997.13
2018-01-24T17:13:15.297Z,101999.70
2018-01-24T17:15:43.780Z,102005.63
2018-01-24T17:18:11.387Z,102005.32
2018-01-24T17:20:38.974Z,102004.84
2018-01-24T17:23:06.631Z,102007.13
2018-01-24T17:25:34.284Z,102007.28
2018-01-24T17:28:01.884Z,102002.33
2018-01-24T17:30:29.486Z,102005.50
2018-01-24T17:32:57.043Z,102012.21
2018-01-24T17:35:24.692Z,102011.61
2018-01-24T17:37:52.280Z,102008.30
2018-01-24T17:40:20.769Z,102013.94
2018-01-24T17:42:48.329Z,102013.70
2018-01-24T17:45:15.948Z,102009.82
2018-01-24T17:47:43.525Z,102008.31
2018-01-24T17:50:11.108Z,102014.41
2018-01-24T17:52:38.723Z,102014.56
2018-01-24T17:55:06.321Z,102007.05
2018-01-24T17:57:33.880Z,102010.41
2018-01-24T18:00:01.512Z,102007.94
2018-01-24T18:02:29.079Z,101995.23
2018-01-24T18:04:56.649Z,102012.91
2018-01-24T18:07:24.244Z,102013.37
2018-01-24T18:09:51.801Z,102012.14
2018-01-24T18:12:19.373Z,102010.28
2018-01-24T18:14:46.987Z,102015.20
2018-01-24T18:17:14.547Z,102017.59
2018-01-24T18:19:42.124Z,102018.31
2018-01-24T18:22:09.733Z,102011.97
2018-01-24T18:24:37.295Z,102017.73
2018-01-24T18:27:04.882Z,102008.66
2018-01-24T18:29:32.489Z,102021.84
2018-01-24T18:32:00.064Z,102023.39
2018-01-24T18:34:27.641Z,102007.88
2018-01-24T18:36:55.233Z,102012.58
2018-01-24T18:39:22.877Z,102014.49
2018-01-24T18:41:50.458Z,102001.28
2018-01-24T18:44:18.056Z,102017.68
2018-01-24T18:46:45.613Z,102016.45
2018-01-24T18:49:13.181Z,102018.17
2018-01-24T18:51:40.825Z,102020.69
2018-01-24T18:54:08.441Z,102021.56
2018-01-24T18:56:36.023Z,101999.30
2018-01-24T18:59:03.625Z,102023.94
2018-01-24T19:01:31.224Z,102011.84
2018-01-24T19:03:58.842Z,102019.77
2018-01-24T19:06:26.466Z,102021.67
2018-01-24T19:08:54.093Z,102022.34
2018-01-24T19:11:21.649Z,102021.42
2018-01-24T19:13:49.266Z,102031.13
2018-01-24T19:16:16.827Z,102027.55
2018-01-24T19:18:44.398Z,102028.61
2018-01-24T19:21:12.015Z,102026.42
2018-01-24T19:23:39.597Z,102032.46
2018-01-24T19:26:07.291Z,102012.40
2018-01-24T19:28:34.915Z,102022.07
2018-01-24T19:31:02.482Z,102014.04
2018-01-24T19:33:30.106Z,102013.61
2018-01-24T19:35:57.746Z,102020.80
2018-01-24T19:38:25.352Z,102020.67
2018-01-24T19:40:52.960Z,102017.18
2018-01-24T19:43:20.606Z,102013.03
2018-01-24T19:45:48.176Z,102009.11
2018-01-24T19:48:15.789Z,102006.73
2018-01-24T19:50:43.349Z,102004.58
2018-01-24T19:53:10.954Z,102000.63
2018-01-24T19:55:38.568Z,102003.83
2018-01-24T19:58:06.128Z,102007.44
2018-01-24T20:00:33.692Z,102003.50
2018-01-24T20:03:01.282Z,102007.86
2018-01-24T20:05:28.861Z,101997.48
2018-01-24T20:07:56.734Z,101993.63
2018-01-24T20:10:24.325Z,101993.59
2018-01-24T20:12:51.965Z,102002.80
2018-01-24T20:15:19.554Z,102002.08
2018-01-24T20:17:47.193Z,101996.65
2018-01-24T20:20:14.768Z,101993.16
2018-01-24T20:22:42.333Z,101991.77
2018-01-24T20:25:09.949Z,101995.59
2018-01-24T20:27:37.526Z,101980.55
2018-01-24T20:30:05.094Z,101961.84
2018-01-24T20:32:32.714Z,101976.95
2018-01-24T20:35:00.295Z,101972.45
2018-01-24T20:37:27.872Z,101975.31
2018-01-24T20:39:55.484Z,101974.58
2018-01-24T20:42:23.042Z,101959.14
2018-01-24T20:44:50.606Z,101967.21
2018-01-24T20:47:18.226Z,101965.84
2018-01-24T20:49:45.787Z,101958.68
2018-01-24T20:52:13.350Z,101957.02
2018-01-24T20:54:40.952Z,101954.95
2018-01-24T20:57:08.528Z,101943.46
2018-01-24T20:59:36.084Z,101945.67
2018-01-24T21:02:03.681Z,101941.34
2018-01-24T21:04:31.260Z,101938.15
2018-01-24T21:06:58.829Z,101940.12
2018-01-24T21:09:26.407Z,101931.67
2018-01-24T21:11:53.968Z,101922.20
2018-01-24T21:14:21.521Z,101933.12
2018-01-24T21:16:49.156Z,101921.87
2018-01-24T21:19:16.725Z,101918.33
2018-01-24T21:21:44.277Z,101919.20
2018-01-24T21:24:12.470Z,101913.39
2018-01-24T21:26:40.056Z,101903.44
2018-01-24T21:29:28.996Z,101907.05
2018-01-24T21:35:08.137Z,101907.81
2018-01-24T21:37:35.714Z,101906.08
2018-01-24T21:40:03.323Z,101907.11
2018-01-24T21:42:30.932Z,101903.69
2018-01-24T21:44:58.500Z,101899.36
2018-01-24T21:47:26.104Z,101893.32
2018-01-24T21:49:53.700Z,101896.02
2018-01-24T21:52:21.271Z,101904.75
2018-01-24T21:54:48.883Z,101902.89
2018-01-24T21:57:16.482Z,101901.44
2018-01-24T21:59:44.047Z,101901.59
2018-01-24T22:02:11.616Z,101899.80
2018-01-24T22:04:39.216Z,101894.73
2018-01-24T22:07:06.797Z,101900.19
2018-01-24T22:09:34.402Z,101897.48
2018-01-24T22:12:01.987Z,101898.78
2018-01-24T22:14:29.544Z,101899.09
2018-01-24T22:16:57.096Z,101898.59
2018-01-24T22:19:24.708Z,101893.41
2018-01-24T22:21:52.285Z,101879.45
2018-01-24T22:24:19.867Z,101877.80
2018-01-24T22:26:47.520Z,101877.05
2018-01-24T22:29:15.071Z,101879.93
2018-01-24T22:31:42.703Z,101882.56
2018-01-24T22:34:10.322Z,101878.31
2018-01-24T22:36:37.929Z,101878.69
2018-01-24T22:39:05.534Z,101877.50
2018-01-24T22:41:33.144Z,101865.16
2018-01-24T22:44:00.707Z,101856.92
2018-01-24T22:46:28.304Z,101855.84
2018-01-24T22:48:55.903Z,101846.25
2018-01-24T22:51:25.281Z,101832.55
2018-01-24T22:53:52.855Z,101826.10
2018-01-24T22:56:20.482Z,101823.16
2018-01-24T22:58:48.084Z,101816.80
2018-01-24T23:01:15.644Z,101814.05
2018-01-24T23:03:43.226Z,101812.46
2018-01-24T23:06:10.857Z,101816.37
2018-01-24T23:08:38.415Z,101820.41
2018-01-24T23:11:06.019Z,101826.47
2018-01-24T23:13:33.576Z,101838.03
2018-01-24T23:16:01.186Z,101837.13
2018-01-24T23:18:28.793Z,101818.55
2018-01-24T23:20:56.359Z,101807.98
2018-01-24T23:23:23.917Z,101821.48
2018-01-24T23:25:51.521Z,101820.05
2018-01-24T23:28:19.088Z,101805.19
2018-01-24T23:30:46.658Z,101811.13
2018-01-24T23:33:14.302Z,101815.31
2018-01-24T23:35:41.879Z,101827.03
2018-01-24T23:38:09.435Z,101820.92
2018-01-24T23:40:37.034Z,101813.48
2018-01-24T23:43:04.601Z,101829.72
2018-01-24T23:45:32.177Z,101833.92
2018-01-24T23:47:59.783Z,101834.69
2018-01-24T23:50:27.375Z,101837.61
2018-01-24T23:52:55.410Z,101842.55
2018-01-24T23:55:23.017Z,101859.02
2018-01-24T23:57:50.564Z,101873.81
